Time;durP1;ratioP1;P1;durP2;ratioP2;P2;SDS_P1;SDS_P2;PMS_P1;PMS_P2;Temp;Humidity;BMP_temperature;BMP_pressure;BME280_temperature;BME280_humidity;BME280_pressure;Samples;Min_cycle;Max_cycle;Signal;HPM_P1;HPM_P2
2021/10/09 00:01:50;;;;;;;49.33;41.55;;;10.10;99.90;;;;;;5027213;28;20068;-71
2021/10/09 00:04:16;;;;;;;49.33;41.03;;;10.10;99.90;;;;;;5028867;28;20072;-71
2021/10/09 00:06:42;;;;;;;50.83;41.70;;;10.10;99.90;;;;;;5030557;28;20085;-71
2021/10/09 00:09:09;;;;;;;53.55;43.42;;;10.00;99.90;;;;;;5030058;28;20429;-71
2021/10/09 00:11:38;;;;;;;57.92;43.55;;;10.00;99.90;;;;;;5030442;28;20041;-71
2021/10/09 00:14:06;;;;;;;59.85;45.88;;;10.10;99.90;;;;;;5029648;28;20040;-71
2021/10/09 00:16:33;;;;;;;55.75;44.47;;;10.10;99.90;;;;;;5042597;28;20045;-71
2021/10/09 00:18:58;;;;;;;56.58;45.22;;;10.10;99.90;;;;;;5045791;28;20492;-71
2021/10/09 00:21:24;;;;;;;55.92;46.28;;;10.20;99.90;;;;;;5046549;28;20056;-71
2021/10/09 00:23:50;;;;;;;56.95;45.28;;;10.20;99.90;;;;;;5044377;28;20040;-71
2021/10/09 00:26:17;;;;;;;55.83;44.60;;;10.20;99.90;;;;;;5046953;28;20053;-71
2021/10/09 00:28:44;;;;;;;59.00;46.03;;;10.30;99.90;;;;;;5014041;28;20041;-71
2021/10/09 00:31:09;;;;;;;56.92;45.25;;;10.30;99.90;;;;;;5029124;28;20044;-71
2021/10/09 00:33:35;;;;;;;58.58;45.90;;;10.30;99.90;;;;;;5005443;28;20055;-71
2021/10/09 00:36:04;;;;;;;58.50;45.42;;;10.40;99.90;;;;;;5046783;28;20084;-71
2021/10/09 00:38:30;;;;;;;55.65;45.05;;;10.40;99.90;;;;;;5030496;28;20049;-72
2021/10/09 00:40:56;;;;;;;60.72;46.60;;;10.40;99.90;;;;;;5029622;28;20451;-71
2021/10/09 00:43:21;;;;;;;59.97;45.58;;;10.40;99.90;;;;;;5045650;28;20519;-71
2021/10/09 00:45:57;;;;;;;56.35;43.88;;;10.40;99.90;;;;;;5046590;28;20053;-72
2021/10/09 00:48:25;;;;;;;63.42;46.70;;;10.40;99.90;;;;;;5027952;28;20059;-70
2021/10/09 00:50:51;;;;;;;59.72;46.00;;;10.30;99.90;;;;;;5029496;28;20043;-71
2021/10/09 00:53:21;;;;;;;57.72;45.03;;;10.30;99.90;;;;;;5045500;28;20120;-71
2021/10/09 00:55:48;;;;;;;59.25;44.30;;;10.30;99.90;;;;;;5044268;28;20044;-71
2021/10/09 00:58:15;;;;;;;56.63;45.22;;;10.30;99.90;;;;;;5029513;28;20575;-71
2021/10/09 01:00:42;;;;;;;64.18;46.22;;;10.30;99.90;;;;;;5045075;28;20072;-71
2021/10/09 01:03:10;;;;;;;61.22;44.78;;;10.30;99.90;;;;;;5029027;28;20041;-71
2021/10/09 01:05:36;;;;;;;64.30;45.45;;;10.30;99.90;;;;;;5045828;28;20131;-71
2021/10/09 01:08:06;;;;;;;59.25;44.80;;;10.30;99.90;;;;;;5028746;28;20041;-71
2021/10/09 01:10:35;;;;;;;57.50;43.08;;;10.30;99.90;;;;;;5028752;28;20104;-71
2021/10/09 01:13:04;;;;;;;59.50;43.80;;;10.30;99.90;;;;;;5046295;28;20531;-71
2021/10/09 01:15:33;;;;;;;59.97;42.55;;;10.30;99.90;;;;;;5044450;28;20399;-71
2021/10/09 01:18:12;;;;;;;63.15;44.38;;;10.30;99.90;;;;;;5030138;28;20106;-71
2021/10/09 01:20:52;;;;;;;60.10;44.80;;;10.30;99.90;;;;;;5029974;28;20044;-72
2021/10/09 01:23:19;;;;;;;61.90;44.67;;;10.20;99.90;;;;;;5061448;28;20395;-71
2021/10/09 01:25:46;;;;;;;62.35;44.83;;;10.20;99.90;;;;;;5045736;28;20056;-71
2021/10/09 01:28:12;;;;;;;63.20;45.00;;;10.20;99.90;;;;;;5045142;28;20061;-71
2021/10/09 01:30:39;;;;;;;65.78;47.05;;;10.20;99.90;;;;;;5028409;28;20503;-72
2021/10/09 01:33:04;;;;;;;58.78;42.75;;;10.20;99.90;;;;;;5028909;28;20076;-72
2021/10/09 01:35:30;;;;;;;62.10;45.70;;;10.20;99.90;;;;;;5029589;28;20069;-71
2021/10/09 01:37:56;;;;;;;68.75;47.33;;;10.20;99.90;;;;;;5045160;28;20527;-72
2021/10/09 01:40:22;;;;;;;71.90;47.08;;;10.20;99.90;;;;;;5029166;28;20060;-71
2021/10/09 01:42:49;;;;;;;72.70;49.15;;;10.20;99.90;;;;;;5025499;28;20037;-71
2021/10/09 01:45:15;;;;;;;71.50;49.20;;;10.20;99.90;;;;;;5034679;28;20041;-71
2021/10/09 01:47:42;;;;;;;76.63;50.45;;;10.20;99.90;;;;;;5042816;28;20422;-71
2021/10/09 01:50:09;;;;;;;68.35;46.90;;;10.20;99.90;;;;;;5045470;28;20040;-71
2021/10/09 01:52:35;;;;;;;75.60;49.72;;;10.20;99.90;;;;;;5042882;28;20060;-71
2021/10/09 01:55:04;;;;;;;69.78;47.33;;;10.20;99.90;;;;;;5051783;28;20095;-72
2021/10/09 01:57:30;;;;;;;67.95;48.30;;;10.30;99.90;;;;;;5051963;28;20040;-71
2021/10/09 01:59:55;;;;;;;71.43;48.72;;;10.20;99.90;;;;;;5051049;28;20055;-72
2021/10/09 02:02:21;;;;;;;72.40;49.38;;;10.20;99.90;;;;;;5039246;28;20033;-71
2021/10/09 02:04:47;;;;;;;70.40;48.35;;;10.20;99.90;;;;;;5051366;28;20040;-71
2021/10/09 02:07:18;;;;;;;75.47;52.03;;;10.20;99.90;;;;;;5034447;28;20493;-71
2021/10/09 02:09:43;;;;;;;79.07;51.22;;;10.20;99.90;;;;;;5035426;28;20063;-71
2021/10/09 02:12:09;;;;;;;76.68;49.78;;;10.10;99.90;;;;;;5035324;28;20049;-71
2021/10/09 02:25:34;;;;;;;81.80;51.25;;;10.00;99.90;;;;;;5043990;28;20134;-70
2021/10/09 02:27:59;;;;;;;90.60;55.17;;;10.00;99.90;;;;;;5052189;28;20063;-71
2021/10/09 02:30:25;;;;;;;105.60;60.17;;;10.00;99.90;;;;;;5035081;28;20037;-71
2021/10/09 02:32:51;;;;;;;120.32;63.10;;;10.10;99.90;;;;;;5048539;28;20873;-71
2021/10/09 02:35:17;;;;;;;133.82;64.60;;;10.10;99.90;;;;;;5051943;28;20041;-71
2021/10/09 02:37:43;;;;;;;135.57;65.45;;;10.10;99.90;;;;;;5051515;28;20056;-71
2021/10/09 02:40:10;;;;;;;137.52;65.13;;;10.20;99.90;;;;;;5031690;28;20041;-71
2021/10/09 02:42:36;;;;;;;156.82;68.88;;;10.20;99.90;;;;;;5051296;28;20132;-71
2021/10/09 02:45:02;;;;;;;153.45;67.18;;;10.20;99.90;;;;;;5049797;28;20132;-71
2021/10/09 02:47:28;;;;;;;141.73;65.32;;;10.20;99.90;;;;;;5033368;28;20080;-71
2021/10/09 02:49:54;;;;;;;137.00;65.05;;;10.20;99.90;;;;;;5032540;28;20512;-71
2021/10/09 02:52:19;;;;;;;137.38;66.38;;;10.20;99.90;;;;;;5050692;28;20556;-71
2021/10/09 02:54:45;;;;;;;157.95;67.43;;;10.10;99.90;;;;;;5051338;28;20091;-71
2021/10/09 02:57:12;;;;;;;128.25;61.92;;;10.10;99.90;;;;;;5033602;28;20045;-71
2021/10/09 02:59:38;;;;;;;128.07;62.60;;;10.10;99.90;;;;;;5051911;28;20041;-71
2021/10/09 03:02:04;;;;;;;161.32;67.53;;;10.10;99.90;;;;;;5018355;28;20573;-71
2021/10/09 03:04:30;;;;;;;143.63;64.25;;;10.00;99.90;;;;;;5032819;28;20042;-71
2021/10/09 03:06:55;;;;;;;131.88;61.55;;;10.00;99.90;;;;;;5032083;28;20110;-71
2021/10/09 03:09:21;;;;;;;141.93;63.78;;;10.00;99.90;;;;;;5032839;28;20231;-71
2021/10/09 03:11:47;;;;;;;128.52;61.13;;;10.00;99.90;;;;;;5049252;28;20438;-71
2021/10/09 03:14:12;;;;;;;145.45;62.50;;;10.00;99.90;;;;;;5031514;28;20071;-71
2021/10/09 03:16:38;;;;;;;143.43;63.42;;;10.00;99.90;;;;;;5032253;28;20041;-71
2021/10/09 03:19:04;;;;;;;150.90;64.43;;;9.90;99.90;;;;;;5047631;28;20514;-71
2021/10/09 03:21:30;;;;;;;151.25;66.88;;;9.90;99.90;;;;;;5015270;28;20522;-71
2021/10/09 03:23:55;;;;;;;137.82;63.17;;;9.90;99.90;;;;;;5029629;28;20033;-71
2021/10/09 03:26:21;;;;;;;166.13;67.75;;;9.90;99.90;;;;;;4999448;28;20045;-71
2021/10/09 03:28:47;;;;;;;131.40;63.15;;;9.90;99.90;;;;;;5032174;28;20067;-71
2021/10/09 03:31:13;;;;;;;180.80;67.30;;;9.90;99.90;;;;;;5029139;28;20083;-71
2021/10/09 03:33:42;;;;;;;153.73;64.30;;;9.90;99.90;;;;;;5048364;28;20051;-71
2021/10/09 03:36:08;;;;;;;166.98;65.22;;;9.90;99.90;;;;;;5047591;28;20120;-71
2021/10/09 03:38:36;;;;;;;157.82;65.55;;;9.90;99.90;;;;;;5015542;28;20135;-71
2021/10/09 03:41:11;;;;;;;200.63;70.20;;;9.90;99.90;;;;;;5015167;28;20049;-71
2021/10/09 03:43:37;;;;;;;146.55;64.60;;;9.90;99.90;;;;;;5048268;28;20476;-71
2021/10/09 03:46:41;;;;;;;195.43;70.93;;;9.90;99.90;;;;;;5030592;28;20064;-71
2021/10/09 03:54:23;;;;;;;191.38;68.07;;;9.90;99.90;;;;;;5045180;28;20057;-71
2021/10/09 03:56:49;;;;;;;185.20;67.65;;;9.90;99.90;;;;;;5030993;28;20037;-71
2021/10/09 03:59:15;;;;;;;205.15;68.97;;;9.90;99.90;;;;;;5014705;28;20380;-71
2021/10/09 04:01:40;;;;;;;174.00;66.55;;;9.90;99.90;;;;;;5046921;28;20062;-71
2021/10/09 04:04:06;;;;;;;204.85;69.68;;;9.90;99.90;;;;;;5032092;28;20045;-71
2021/10/09 04:06:32;;;;;;;174.10;65.57;;;9.90;99.90;;;;;;5033038;28;20391;-71
2021/10/09 04:08:58;;;;;;;186.45;68.43;;;9.80;99.90;;;;;;5032281;28;20045;-71
2021/10/09 04:11:24;;;;;;;205.80;66.53;;;9.80;99.90;;;;;;5033207;28;20056;-71
2021/10/09 04:13:50;;;;;;;201.07;69.32;;;9.80;99.90;;;;;;5048812;28;20504;-71
2021/10/09 04:16:16;;;;;;;161.55;63.58;;;9.80;99.90;;;;;;5031766;28;20044;-71
2021/10/09 04:18:41;;;;;;;158.82;67.55;;;9.80;99.90;;;;;;5032034;28;20049;-71
2021/10/09 04:21:07;;;;;;;160.63;61.65;;;9.80;99.90;;;;;;5031754;28;20052;-71
2021/10/09 04:23:33;;;;;;;215.40;70.78;;;9.70;99.90;;;;;;5064173;28;20499;-71
2021/10/09 04:25:59;;;;;;;128.05;55.92;;;9.70;99.90;;;;;;5048009;28;20060;-71
2021/10/09 04:28:25;;;;;;;222.00;66.53;;;9.70;99.90;;;;;;5032154;28;20049;-71
2021/10/09 04:30:50;;;;;;;172.40;64.00;;;9.70;99.90;;;;;;5031847;28;20036;-72
2021/10/09 04:33:16;;;;;;;195.27;65.00;;;9.70;99.90;;;;;;5048100;28;20095;-72
2021/10/09 04:35:42;;;;;;;185.40;62.80;;;9.70;99.90;;;;;;5048531;28;20136;-72
2021/10/09 04:38:08;;;;;;;234.35;67.60;;;9.70;99.90;;;;;;5047863;28;20057;-72
2021/10/09 04:40:34;;;;;;;208.27;65.15;;;9.70;99.90;;;;;;5048759;28;20060;-71
2021/10/09 04:43:00;;;;;;;195.65;63.83;;;9.70;99.90;;;;;;5031763;28;20056;-75
2021/10/09 04:45:26;;;;;;;238.07;69.70;;;9.70;99.90;;;;;;5048056;28;20496;-74
2021/10/09 04:47:52;;;;;;;167.38;62.85;;;9.70;99.90;;;;;;5019768;28;20068;-75
2021/10/09 04:50:17;;;;;;;177.88;64.90;;;9.70;99.90;;;;;;5047273;28;20163;-75
2021/10/09 04:52:43;;;;;;;184.95;64.63;;;9.60;99.90;;;;;;5047732;28;20066;-75
2021/10/09 04:55:09;;;;;;;218.23;66.90;;;9.60;99.90;;;;;;5064842;28;20049;-72
2021/10/09 04:57:35;;;;;;;189.85;63.45;;;9.60;99.90;;;;;;5031524;28;20060;-72
2021/10/09 05:00:04;;;;;;;200.25;65.97;;;9.60;99.90;;;;;;5047292;28;20049;-72
2021/10/09 05:02:30;;;;;;;172.10;63.20;;;9.60;99.90;;;;;;5032269;28;20052;-71
2021/10/09 05:04:56;;;;;;;208.80;68.72;;;9.60;99.90;;;;;;5064689;28;20051;-71
2021/10/09 05:07:21;;;;;;;260.92;69.30;;;9.60;99.90;;;;;;5031751;28;20053;-72
2021/10/09 05:09:49;;;;;;;181.45;65.60;;;9.60;99.90;;;;;;5048725;28;20033;-71
2021/10/09 05:12:15;;;;;;;186.43;68.22;;;9.60;99.90;;;;;;5031484;28;20049;-72
2021/10/09 05:14:41;;;;;;;198.00;68.07;;;9.60;99.90;;;;;;5031851;28;20060;-72
2021/10/09 05:17:07;;;;;;;225.70;71.07;;;9.60;99.90;;;;;;5014740;28;20048;-72
2021/10/09 05:19:33;;;;;;;193.98;68.25;;;9.60;99.90;;;;;;5010577;28;20385;-71
2021/10/09 05:21:59;;;;;;;226.10;66.82;;;9.60;99.90;;;;;;5030401;28;20048;-72
2021/10/09 05:24:24;;;;;;;250.38;70.30;;;9.60;99.90;;;;;;5064384;28;20127;-72
2021/10/09 05:26:50;;;;;;;229.18;71.30;;;9.60;99.90;;;;;;5047289;28;20199;-72
2021/10/09 05:29:18;;;;;;;202.60;69.13;;;9.60;99.90;;;;;;5046312;28;20041;-72
2021/10/09 05:31:47;;;;;;;201.82;70.50;;;9.60;99.90;;;;;;5031203;28;20060;-71
2021/10/09 05:34:12;;;;;;;242.40;73.28;;;9.60;99.90;;;;;;5046651;28;20038;-72
2021/10/09 05:36:38;;;;;;;193.88;63.90;;;9.60;99.90;;;;;;5030797;28;20052;-71
2021/10/09 05:39:04;;;;;;;294.63;77.72;;;9.60;99.90;;;;;;5010692;28;20091;-71
2021/10/09 05:41:30;;;;;;;260.15;74.75;;;9.60;99.90;;;;;;5011257;28;20052;-72
2021/10/09 05:43:56;;;;;;;257.20;71.63;;;9.60;99.90;;;;;;5002110;28;20059;-72
2021/10/09 05:46:23;;;;;;;314.90;76.38;;;9.60;99.90;;;;;;5044065;28;20533;-72
2021/10/09 05:48:49;;;;;;;281.75;74.05;;;9.50;99.90;;;;;;5045055;28;20560;-70
2021/10/09 05:53:51;;;;;;;215.25;73.05;;;9.60;99.90;;;;;;5012092;28;20133;-71
2021/10/09 05:59:36;;;;;;;226.15;72.05;;;9.50;99.90;;;;;;5061814;28;20087;-71
2021/10/09 06:02:00;;;;;;;181.70;68.85;;;9.60;99.90;;;;;;5037364;28;20056;-72
2021/10/09 07:00:56;;;;;;;184.50;78.82;;;9.70;99.90;;;;;;5025403;28;20766;-71
2021/10/09 07:03:21;;;;;;;172.25;77.38;;;9.70;99.90;;;;;;5028667;28;20051;-70
2021/10/09 07:05:48;;;;;;;178.40;75.25;;;9.70;99.90;;;;;;5045471;28;20041;-71
2021/10/09 07:08:14;;;;;;;195.77;78.70;;;9.60;99.90;;;;;;5045809;28;20124;-71
2021/10/09 07:10:43;;;;;;;189.77;81.13;;;9.60;99.90;;;;;;5041771;28;20139;-71
2021/10/09 07:13:10;;;;;;;178.85;79.10;;;9.70;99.90;;;;;;5046548;28;20267;-71
2021/10/09 07:15:36;;;;;;;183.02;82.13;;;9.70;99.90;;;;;;5044352;28;20056;-70
2021/10/09 07:18:04;;;;;;;151.85;73.15;;;9.60;99.90;;;;;;5048277;28;20105;-71
2021/10/09 07:20:30;;;;;;;158.35;75.60;;;9.70;99.90;;;;;;5053058;28;20052;-71
2021/10/09 07:22:56;;;;;;;149.27;73.45;;;9.70;99.90;;;;;;5031100;28;20098;-71
2021/10/09 07:25:24;;;;;;;152.27;73.22;;;9.70;99.90;;;;;;5029627;28;20037;-71
2021/10/09 07:27:50;;;;;;;146.23;71.90;;;9.70;99.90;;;;;;5030941;28;20053;-71
2021/10/09 07:30:16;;;;;;;138.02;71.70;;;9.70;99.90;;;;;;5047884;28;20063;-70
2021/10/09 07:32:44;;;;;;;125.15;67.53;;;9.70;99.90;;;;;;5031104;28;20483;-70
2021/10/09 07:35:10;;;;;;;126.68;68.40;;;9.70;99.90;;;;;;5047632;28;20045;-70
2021/10/09 07:37:36;;;;;;;117.57;65.80;;;9.70;99.90;;;;;;5045647;28;20156;-71
2021/10/09 07:40:06;;;;;;;121.25;67.90;;;9.80;99.90;;;;;;5045709;28;20052;-71
2021/10/09 07:42:32;;;;;;;118.78;62.60;;;9.80;99.90;;;;;;5044038;28;20045;-72
2021/10/09 07:44:58;;;;;;;128.45;66.90;;;9.80;99.90;;;;;;5025602;28;20059;-71
2021/10/09 07:47:25;;;;;;;110.97;62.13;;;9.80;99.90;;;;;;5040132;28;20583;-71
2021/10/09 07:49:51;;;;;;;105.60;58.47;;;9.80;99.90;;;;;;5034654;28;20052;-70
2021/10/09 07:52:17;;;;;;;102.88;59.72;;;9.80;99.90;;;;;;5044544;28;20041;-70
2021/10/09 07:54:42;;;;;;;104.70;58.70;;;9.90;99.90;;;;;;5048067;28;20124;-71
2021/10/09 07:57:08;;;;;;;95.40;57.00;;;9.90;99.90;;;;;;5046777;28;20060;-71
2021/10/09 07:59:35;;;;;;;96.10;56.60;;;9.90;99.90;;;;;;5028247;28;20557;-70
2021/10/09 08:02:01;;;;;;;95.63;55.90;;;9.90;99.90;;;;;;5044794;28;20028;-70
2021/10/09 08:04:30;;;;;;;92.57;56.22;;;9.90;99.90;;;;;;5014638;28;20697;-70
2021/10/09 08:06:56;;;;;;;90.55;54.10;;;9.90;99.90;;;;;;5047886;28;20049;-71
2021/10/09 08:09:25;;;;;;;82.03;53.83;;;9.90;99.90;;;;;;5038926;28;20124;-70
2021/10/09 08:11:51;;;;;;;71.25;49.50;;;9.90;99.90;;;;;;5047003;28;20053;-71
2021/10/09 08:14:17;;;;;;;72.90;50.22;;;9.90;99.90;;;;;;5012295;28;20120;-70
2021/10/09 08:16:43;;;;;;;78.28;50.40;;;9.90;99.90;;;;;;5043156;28;20041;-71
2021/10/09 08:19:09;;;;;;;77.57;51.03;;;9.90;99.90;;;;;;5042759;28;20132;-70
2021/10/09 08:21:40;;;;;;;70.15;46.95;;;9.90;99.90;;;;;;5022529;28;20657;-70
2021/10/09 08:24:22;;;;;;;69.25;47.95;;;9.90;99.90;;;;;;5024360;28;20044;-70
2021/10/09 08:40:23;;;;;;;66.25;47.95;;;10.00;99.90;;;;;;5064694;28;20041;-71
2021/10/09 08:42:48;;;;;;;64.75;49.88;;;10.00;99.90;;;;;;5047686;28;20048;-71
2021/10/09 08:45:14;;;;;;;61.33;47.78;;;10.00;99.90;;;;;;5022017;28;20091;-70
2021/10/09 08:47:42;;;;;;;62.30;48.08;;;10.10;99.90;;;;;;5042081;28;20067;-70
2021/10/09 08:50:10;;;;;;;62.92;47.28;;;10.10;99.90;;;;;;5029983;28;20083;-71
2021/10/09 08:52:36;;;;;;;62.35;47.55;;;10.20;99.90;;;;;;5065194;28;20119;-71
2021/10/09 08:55:23;;;;;;;56.78;46.03;;;10.40;99.90;;;;;;5046620;28;20045;-70
2021/10/09 08:57:50;;;;;;;56.25;44.08;;;10.60;99.90;;;;;;5044313;28;20052;-70
2021/10/09 09:00:21;;;;;;;62.90;45.72;;;10.80;99.90;;;;;;5030539;28;20083;-71
2021/10/09 09:03:07;;;;;;;54.97;43.92;;;11.00;99.90;;;;;;5030523;28;20032;-71
2021/10/09 09:05:51;;;;;;;55.83;43.22;;;11.20;99.90;;;;;;5048660;28;20469;-70
2021/10/09 09:08:29;;;;;;;60.97;46.35;;;11.30;99.90;;;;;;5030206;28;20372;-70
2021/10/09 09:33:47;;;;;;;54.17;42.47;;;11.40;99.90;;;;;;5063928;28;20079;-74
2021/10/09 09:38:56;;;;;;;50.90;39.03;;;11.70;99.90;;;;;;5048701;28;20114;-70
2021/10/09 09:41:24;;;;;;;46.13;36.03;;;11.70;99.90;;;;;;5048545;28;20445;-70
2021/10/09 09:43:53;;;;;;;45.67;36.10;;;11.90;99.90;;;;;;5032661;28;20087;-71
2021/10/09 09:46:23;;;;;;;43.65;35.28;;;12.00;99.90;;;;;;5047486;28;20135;-71
2021/10/09 09:48:50;;;;;;;42.65;34.88;;;12.10;99.90;;;;;;5031576;28;20040;-70
2021/10/09 09:51:18;;;;;;;39.42;33.03;;;12.30;99.90;;;;;;5046600;28;20040;-70
2021/10/09 09:53:47;;;;;;;42.03;31.90;;;12.40;99.90;;;;;;5032004;28;20048;-71
2021/10/09 09:56:14;;;;;;;41.38;33.03;;;12.50;99.90;;;;;;5030463;28;20082;-70
2021/10/09 09:58:42;;;;;;;42.10;34.28;;;12.60;99.90;;;;;;5048326;28;20040;-70
2021/10/09 10:01:09;;;;;;;38.88;31.63;;;12.60;99.90;;;;;;5048999;28;20045;-70
2021/10/09 10:03:36;;;;;;;41.85;32.78;;;12.70;99.90;;;;;;5048679;28;20093;-70
2021/10/09 10:06:04;;;;;;;43.20;31.98;;;12.70;99.90;;;;;;5032023;28;20119;-70
2021/10/09 10:08:30;;;;;;;41.67;32.42;;;12.80;99.90;;;;;;5032751;28;20040;-71
2021/10/09 10:11:00;;;;;;;43.70;32.58;;;12.80;99.90;;;;;;5047785;28;20090;-70
2021/10/09 10:13:29;;;;;;;37.08;31.73;;;12.90;99.90;;;;;;5032928;28;20041;-70
2021/10/09 10:15:56;;;;;;;40.92;31.50;;;12.90;99.90;;;;;;5052729;28;20132;-70
2021/10/09 10:18:44;;;;;;;39.55;31.88;;;13.00;99.90;;;;;;5034362;28;20437;-70
2021/10/09 10:21:32;;;;;;;38.95;31.40;;;13.00;99.90;;;;;;5067619;28;20051;-70
2021/10/09 10:23:58;;;;;;;42.28;31.27;;;13.10;99.90;;;;;;5052839;28;20471;-71
2021/10/09 10:26:26;;;;;;;42.83;32.50;;;13.20;99.90;;;;;;5051787;28;20076;-71
2021/10/09 10:28:55;;;;;;;40.50;30.48;;;13.30;99.90;;;;;;5036572;28;20099;-71
2021/10/09 10:31:22;;;;;;;39.45;31.23;;;13.20;99.90;;;;;;5031498;28;20033;-71
2021/10/09 10:33:56;;;;;;;39.20;29.27;;;13.30;99.90;;;;;;5035513;28;20048;-71
2021/10/09 10:36:44;;;;;;;37.83;30.23;;;13.30;99.90;;;;;;5035290;28;20052;-72
2021/10/09 10:39:11;;;;;;;36.65;28.42;;;13.40;99.90;;;;;;5052117;28;20044;-71
2021/10/09 10:41:51;;;;;;;37.85;29.52;;;13.50;99.90;;;;;;5033756;28;20051;-70
2021/10/09 10:44:53;;;;;;;34.42;28.25;;;13.60;99.90;;;;;;5048910;28;20190;-71
2021/10/09 10:47:40;;;;;;;35.80;29.08;;;13.50;99.90;;;;;;5064554;28;20977;-71
2021/10/09 10:50:20;;;;;;;39.40;29.40;;;13.50;99.90;;;;;;5060622;28;20055;-70
2021/10/09 10:52:57;;;;;;;40.97;30.35;;;13.60;99.90;;;;;;5026143;28;20131;-71
2021/10/09 10:55:23;;;;;;;38.63;30.05;;;13.70;99.90;;;;;;5035322;28;20131;-71
2021/10/09 10:58:23;;;;;;;40.03;28.35;;;13.80;99.90;;;;;;5072224;28;20100;-71
2021/10/09 11:01:18;;;;;;;35.15;28.40;;;13.80;99.90;;;;;;5063594;28;20520;-71
2021/10/09 11:03:55;;;;;;;38.38;28.30;;;13.90;99.90;;;;;;5067208;28;20700;-70
2021/10/09 11:06:27;;;;;;;35.85;27.63;;;13.90;99.90;;;;;;5054301;28;20128;-70
2021/10/09 11:08:57;;;;;;;39.53;27.75;;;13.90;99.90;;;;;;5057349;28;20041;-71
2021/10/09 11:11:42;;;;;;;29.85;25.63;;;13.90;99.90;;;;;;5052253;28;20112;-70
2021/10/09 11:14:08;;;;;;;29.52;24.02;;;14.00;99.90;;;;;;5031732;28;20122;-71
2021/10/09 11:16:36;;;;;;;35.55;24.27;;;14.00;99.90;;;;;;5067479;28;20048;-71
2021/10/09 11:19:02;;;;;;;32.88;26.02;;;14.00;99.90;;;;;;5051402;28;20090;-71
2021/10/09 11:21:28;;;;;;;30.45;23.52;;;14.10;99.90;;;;;;5039164;28;20049;-70
2021/10/09 11:23:56;;;;;;;32.35;23.17;;;14.10;99.90;;;;;;5052591;28;20084;-71
2021/10/09 11:26:24;;;;;;;28.35;23.67;;;14.20;99.90;;;;;;5068326;28;20045;-71
2021/10/09 11:29:09;;;;;;;29.00;23.02;;;14.20;99.90;;;;;;5055942;28;20080;-71
2021/10/09 11:31:38;;;;;;;31.70;23.67;;;14.30;99.90;;;;;;5055756;28;20044;-70
2021/10/09 11:34:04;;;;;;;32.00;23.52;;;14.40;99.90;;;;;;5052432;28;20265;-70
2021/10/09 11:36:37;;;;;;;28.17;23.25;;;14.60;99.90;;;;;;5051530;28;20050;-70
2021/10/09 11:39:12;;;;;;;30.77;22.88;;;14.60;99.90;;;;;;5051387;28;20084;-72
2021/10/09 11:41:40;;;;;;;30.77;22.92;;;14.70;99.90;;;;;;5067981;28;20119;-70
2021/10/09 11:44:33;;;;;;;32.22;22.85;;;14.80;99.90;;;;;;5019771;28;20043;-71
2021/10/09 11:55:29;;;;;;;30.48;19.33;;;15.00;99.90;;;;;;5052128;28;20450;-71
2021/10/09 11:57:56;;;;;;;27.90;20.15;;;15.10;99.90;;;;;;5035316;28;20053;-70
2021/10/09 12:00:29;;;;;;;26.85;20.55;;;15.10;99.90;;;;;;5050552;28;20113;-70
2021/10/09 12:02:54;;;;;;;25.25;19.17;;;15.20;99.90;;;;;;5051931;28;20411;-70
2021/10/09 12:05:21;;;;;;;29.10;21.67;;;15.30;99.50;;;;;;5069761;28;20063;-70
2021/10/09 12:08:14;;;;;;;26.65;20.23;;;15.30;99.30;;;;;;5053984;28;20055;-71
2021/10/09 12:10:40;;;;;;;26.27;20.05;;;15.40;99.60;;;;;;5051412;28;20044;-69
2021/10/09 12:13:06;;;;;;;27.45;20.65;;;15.40;99.80;;;;;;5052318;28;20052;-70
2021/10/09 12:15:36;;;;;;;24.88;20.42;;;15.50;98.40;;;;;;5069425;28;20040;-70
2021/10/09 12:18:02;;;;;;;28.15;20.58;;;15.50;97.70;;;;;;5068781;28;20043;-71
2021/10/09 12:20:29;;;;;;;24.52;19.10;;;15.50;98.40;;;;;;5022698;28;20082;-71
2021/10/09 12:22:56;;;;;;;22.13;18.10;;;15.50;98.30;;;;;;5049733;28;20529;-70
2021/10/09 12:25:26;;;;;;;21.95;16.80;;;15.60;97.50;;;;;;5008174;28;20051;-70
2021/10/09 12:28:04;;;;;;;24.52;18.58;;;15.70;96.60;;;;;;5016160;28;20056;-70
2021/10/09 12:30:46;;;;;;;24.25;17.77;;;15.70;97.20;;;;;;5032170;28;20041;-70
2021/10/09 12:33:37;;;;;;;24.95;17.30;;;15.70;96.50;;;;;;5028350;28;20132;-70
2021/10/09 12:36:40;;;;;;;23.77;18.25;;;15.80;95.70;;;;;;5034826;28;20965;-70
2021/10/09 12:39:27;;;;;;;22.35;17.67;;;15.90;96.60;;;;;;4974176;28;20140;-71
2021/10/09 12:41:54;;;;;;;24.67;17.38;;;16.00;95.70;;;;;;5027288;28;20115;-70
2021/10/09 12:44:22;;;;;;;25.85;17.63;;;16.10;95.80;;;;;;5030915;28;20057;-70
2021/10/09 12:46:48;;;;;;;20.08;16.52;;;16.00;95.20;;;;;;5045802;28;20047;-70
2021/10/09 12:49:14;;;;;;;23.20;17.95;;;16.00;95.70;;;;;;5055734;28;20041;-70
2021/10/09 12:51:40;;;;;;;21.77;17.27;;;16.00;95.90;;;;;;5045846;28;20489;-70
2021/10/09 12:54:07;;;;;;;23.25;17.67;;;16.00;96.00;;;;;;5043122;28;21334;-70
2021/10/09 12:56:34;;;;;;;24.50;17.55;;;16.10;96.10;;;;;;5049436;28;20076;-70
2021/10/09 12:59:00;;;;;;;21.83;16.05;;;16.10;95.80;;;;;;5031760;28;20052;-70
2021/10/09 13:01:27;;;;;;;21.63;15.80;;;16.10;96.00;;;;;;5047878;28;20048;-69
2021/10/09 13:03:53;;;;;;;24.60;16.27;;;16.10;95.50;;;;;;5031749;28;20401;-69
2021/10/09 13:06:18;;;;;;;21.80;15.85;;;16.20;95.50;;;;;;5049190;28;20036;-70
2021/10/09 13:08:44;;;;;;;20.58;16.15;;;16.20;94.40;;;;;;5027735;28;20045;-70
2021/10/09 13:11:10;;;;;;;22.35;16.48;;;16.20;94.40;;;;;;5028487;28;20040;-70
2021/10/09 13:13:36;;;;;;;25.77;16.90;;;16.20;94.50;;;;;;5048600;28;20060;-70
2021/10/09 13:16:02;;;;;;;19.98;15.30;;;16.10;94.40;;;;;;5049183;28;20048;-70
2021/10/09 13:18:28;;;;;;;20.17;15.30;;;16.10;94.20;;;;;;5032601;28;20044;-70
2021/10/09 13:20:53;;;;;;;20.90;15.95;;;16.10;95.00;;;;;;5027379;28;20441;-69
2021/10/09 13:23:19;;;;;;;23.42;16.33;;;16.20;95.30;;;;;;5032371;28;20051;-70
2021/10/09 13:25:45;;;;;;;22.92;16.02;;;16.20;95.00;;;;;;5049344;28;20055;-69
2021/10/09 13:28:11;;;;;;;23.38;17.85;;;16.20;94.80;;;;;;5047065;28;20094;-69
2021/10/09 13:30:37;;;;;;;22.85;16.35;;;16.20;95.00;;;;;;5031870;28;20123;-70
2021/10/09 13:33:03;;;;;;;23.83;15.85;;;16.20;95.30;;;;;;5032202;28;20048;-69
2021/10/09 13:35:29;;;;;;;23.38;16.33;;;16.30;95.00;;;;;;5028128;28;20866;-69
2021/10/09 13:38:01;;;;;;;21.25;15.65;;;16.30;94.90;;;;;;5048244;28;20045;-70
2021/10/09 13:40:27;;;;;;;20.73;16.25;;;16.30;94.40;;;;;;5025677;28;20075;-70
2021/10/09 13:42:53;;;;;;;20.70;13.10;;;16.30;94.60;;;;;;5032253;28;20071;-70
2021/10/09 13:45:19;;;;;;;17.00;14.98;;;16.40;95.10;;;;;;5047084;28;20059;-70
2021/10/09 13:47:45;;;;;;;22.20;16.77;;;16.50;95.00;;;;;;5046251;28;20051;-70
2021/10/09 13:50:14;;;;;;;19.80;15.70;;;16.50;94.40;;;;;;5031064;28;20086;-70
2021/10/09 13:52:40;;;;;;;19.17;14.10;;;16.50;94.00;;;;;;5048341;28;20501;-70
2021/10/09 13:55:07;;;;;;;19.52;14.55;;;16.40;93.60;;;;;;5032312;28;20101;-70
2021/10/09 13:57:32;;;;;;;20.92;15.10;;;16.30;93.60;;;;;;5050588;28;20037;-70
2021/10/09 13:59:58;;;;;;;22.20;14.65;;;16.30;93.20;;;;;;5027302;28;20048;-70
2021/10/09 14:02:24;;;;;;;19.95;15.52;;;16.30;93.80;;;;;;5048201;28;20071;-70
2021/10/09 14:04:50;;;;;;;19.45;14.43;;;16.30;93.90;;;;;;5029817;28;20499;-70
2021/10/09 14:07:16;;;;;;;22.67;14.43;;;16.30;94.10;;;;;;5049039;28;20029;-70
2021/10/09 14:09:42;;;;;;;18.10;13.63;;;16.30;94.00;;;;;;5030596;28;20045;-70
2021/10/09 14:12:08;;;;;;;19.15;13.82;;;16.40;94.00;;;;;;5048413;28;20518;-70
2021/10/09 14:14:33;;;;;;;21.00;14.57;;;16.40;94.00;;;;;;5029454;28;20564;-70
2021/10/09 14:16:59;;;;;;;20.25;14.45;;;16.30;93.70;;;;;;5046863;28;20047;-69
2021/10/09 14:19:25;;;;;;;18.25;14.60;;;16.30;93.60;;;;;;5045537;28;20486;-70
2021/10/09 14:21:52;;;;;;;20.15;14.85;;;16.30;93.90;;;;;;5046336;28;20053;-69
2021/10/09 14:24:18;;;;;;;19.52;14.10;;;16.20;94.10;;;;;;5045527;28;20120;-70
2021/10/09 14:26:44;;;;;;;19.75;12.82;;;16.10;94.20;;;;;;5047413;28;20582;-70
2021/10/09 14:29:10;;;;;;;18.20;14.15;;;16.00;94.40;;;;;;5030346;28;20119;-70
2021/10/09 14:31:36;;;;;;;20.88;14.68;;;15.90;94.30;;;;;;5048443;28;20111;-70
2021/10/09 14:34:05;;;;;;;17.85;15.07;;;15.90;94.40;;;;;;5049003;28;20045;-70
2021/10/09 14:36:31;;;;;;;20.42;14.68;;;15.80;93.90;;;;;;5032070;28;20072;-70
2021/10/09 14:38:59;;;;;;;17.30;12.68;;;15.80;93.80;;;;;;5032104;28;20048;-69